sensor_id;sensor_type;location;lat;lon;timestamp;P1;durP1;ratioP1;P2;durP2;ratioP2
70997;SDS011;58663;52.040;4.634;2022-09-03T00:00:35;2.25;;;1.70;;
70997;SDS011;58663;52.040;4.634;2022-09-03T00:03:07;2.28;;;1.70;;
70997;SDS011;58663;52.040;4.634;2022-09-03T00:05:37;2.20;;;1.77;;
70997;SDS011;58663;52.040;4.634;2022-09-03T00:10:55;4.15;;;1.80;;
70997;SDS011;58663;52.040;4.634;2022-09-03T00:13:31;4.05;;;2.00;;
70997;SDS011;58663;52.040;4.634;2022-09-03T00:15:59;2.95;;;1.90;;
70997;SDS011;58663;52.040;4.634;2022-09-03T00:18:29;5.50;;;1.92;;
70997;SDS011;58663;52.040;4.634;2022-09-03T00:20:57;3.60;;;1.95;;
70997;SDS011;58663;52.040;4.634;2022-09-03T00:23:32;2.33;;;1.88;;
70997;SDS011;58663;52.040;4.634;2022-09-03T00:26:13;3.10;;;2.00;;
70997;SDS011;58663;52.040;4.634;2022-09-03T00:31:14;1.70;;;1.60;;
70997;SDS011;58663;52.040;4.634;2022-09-03T00:33:43;3.10;;;2.10;;
70997;SDS011;58663;52.040;4.634;2022-09-03T00:36:14;2.88;;;1.85;;
70997;SDS011;58663;52.040;4.634;2022-09-03T00:38:41;7.13;;;1.92;;
70997;SDS011;58663;52.040;4.634;2022-09-03T00:41:18;3.60;;;2.00;;
70997;SDS011;58663;52.040;4.634;2022-09-03T00:46:37;3.33;;;2.10;;
70997;SDS011;58663;52.040;4.634;2022-09-03T00:54:20;2.15;;;1.90;;
70997;SDS011;58663;52.040;4.634;2022-09-03T01:12:54;5.10;;;2.10;;
70997;SDS011;58663;52.040;4.634;2022-09-03T01:15:44;2.00;;;1.67;;
70997;SDS011;58663;52.040;4.634;2022-09-03T01:18:56;2.30;;;1.90;;
70997;SDS011;58663;52.040;4.634;2022-09-03T01:27:20;7.72;;;1.88;;
70997;SDS011;58663;52.040;4.634;2022-09-03T01:30:00;4.43;;;2.20;;
70997;SDS011;58663;52.040;4.634;2022-09-03T01:32:53;2.60;;;1.90;;
70997;SDS011;58663;52.040;4.634;2022-09-03T01:35:23;2.10;;;1.90;;
70997;SDS011;58663;52.040;4.634;2022-09-03T01:40:33;2.20;;;1.90;;
70997;SDS011;58663;52.040;4.634;2022-09-03T01:45:54;2.97;;;2.00;;
70997;SDS011;58663;52.040;4.634;2022-09-03T01:48:37;4.60;;;2.10;;
70997;SDS011;58663;52.040;4.634;2022-09-03T02:00:22;2.53;;;1.80;;
70997;SDS011;58663;52.040;4.634;2022-09-03T02:02:45;2.60;;;1.90;;
70997;SDS011;58663;52.040;4.634;2022-09-03T02:07:49;3.78;;;1.80;;
70997;SDS011;58663;52.040;4.634;2022-09-03T02:10:18;3.85;;;2.17;;
70997;SDS011;58663;52.040;4.634;2022-09-03T02:12:51;2.50;;;1.95;;
70997;SDS011;58663;52.040;4.634;2022-09-03T02:15:19;2.13;;;1.95;;
70997;SDS011;58663;52.040;4.634;2022-09-03T02:17:47;4.35;;;2.13;;
70997;SDS011;58663;52.040;4.634;2022-09-03T02:20:20;4.72;;;2.20;;
70997;SDS011;58663;52.040;4.634;2022-09-03T02:22:47;3.28;;;2.17;;
70997;SDS011;58663;52.040;4.634;2022-09-03T02:25:14;2.35;;;1.77;;
70997;SDS011;58663;52.040;4.634;2022-09-03T02:27:40;2.78;;;1.95;;
70997;SDS011;58663;52.040;4.634;2022-09-03T02:30:07;5.22;;;1.90;;
70997;SDS011;58663;52.040;4.634;2022-09-03T02:32:33;3.20;;;1.85;;
70997;SDS011;58663;52.040;4.634;2022-09-03T02:34:58;6.05;;;2.28;;
70997;SDS011;58663;52.040;4.634;2022-09-03T02:37:24;2.80;;;1.88;;
70997;SDS011;58663;52.040;4.634;2022-09-03T02:39:50;4.53;;;1.90;;
70997;SDS011;58663;52.040;4.634;2022-09-03T02:42:18;2.85;;;2.20;;
70997;SDS011;58663;52.040;4.634;2022-09-03T02:44:46;3.20;;;2.20;;
70997;SDS011;58663;52.040;4.634;2022-09-03T02:47:14;3.33;;;2.05;;
70997;SDS011;58663;52.040;4.634;2022-09-03T02:49:39;2.78;;;1.80;;
70997;SDS011;58663;52.040;4.634;2022-09-03T02:52:06;2.20;;;2.00;;
70997;SDS011;58663;52.040;4.634;2022-09-03T02:54:36;3.35;;;1.90;;
70997;SDS011;58663;52.040;4.634;2022-09-03T02:57:06;4.00;;;2.50;;
70997;SDS011;58663;52.040;4.634;2022-09-03T02:59:35;2.53;;;2.00;;
70997;SDS011;58663;52.040;4.634;2022-09-03T03:02:01;3.35;;;2.10;;
70997;SDS011;58663;52.040;4.634;2022-09-03T03:04:31;6.45;;;2.22;;
70997;SDS011;58663;52.040;4.634;2022-09-03T03:06:56;2.22;;;1.88;;
70997;SDS011;58663;52.040;4.634;2022-09-03T03:09:22;2.63;;;2.08;;
70997;SDS011;58663;52.040;4.634;2022-09-03T03:11:48;3.15;;;2.38;;
70997;SDS011;58663;52.040;4.634;2022-09-03T03:14:14;4.13;;;2.28;;
70997;SDS011;58663;52.040;4.634;2022-09-03T03:16:40;3.20;;;2.20;;
70997;SDS011;58663;52.040;4.634;2022-09-03T03:19:05;2.75;;;2.00;;
70997;SDS011;58663;52.040;4.634;2022-09-03T03:21:31;2.35;;;2.03;;
70997;SDS011;58663;52.040;4.634;2022-09-03T03:23:56;6.10;;;2.10;;
70997;SDS011;58663;52.040;4.634;2022-09-03T03:26:22;3.35;;;2.20;;
70997;SDS011;58663;52.040;4.634;2022-09-03T03:28:49;2.40;;;1.90;;
70997;SDS011;58663;52.040;4.634;2022-09-03T03:31:19;3.13;;;2.17;;
70997;SDS011;58663;52.040;4.634;2022-09-03T03:33:55;4.05;;;2.10;;
70997;SDS011;58663;52.040;4.634;2022-09-03T03:36:22;3.72;;;2.22;;
70997;SDS011;58663;52.040;4.634;2022-09-03T03:38:51;3.33;;;2.13;;
70997;SDS011;58663;52.040;4.634;2022-09-03T03:41:19;5.03;;;2.40;;
70997;SDS011;58663;52.040;4.634;2022-09-03T03:43:46;3.88;;;2.35;;
70997;SDS011;58663;52.040;4.634;2022-09-03T03:46:12;2.63;;;2.10;;
70997;SDS011;58663;52.040;4.634;2022-09-03T03:48:39;3.00;;;2.28;;
70997;SDS011;58663;52.040;4.634;2022-09-03T03:51:06;2.05;;;1.85;;
70997;SDS011;58663;52.040;4.634;2022-09-03T03:53:33;3.33;;;2.10;;
70997;SDS011;58663;52.040;4.634;2022-09-03T03:56:00;3.42;;;2.53;;
70997;SDS011;58663;52.040;4.634;2022-09-03T03:58:28;2.83;;;2.25;;
70997;SDS011;58663;52.040;4.634;2022-09-03T04:00:55;7.43;;;2.47;;
70997;SDS011;58663;52.040;4.634;2022-09-03T04:03:31;2.92;;;2.05;;
70997;SDS011;58663;52.040;4.634;2022-09-03T04:05:57;5.13;;;2.10;;
70997;SDS011;58663;52.040;4.634;2022-09-03T04:08:25;2.53;;;1.80;;
70997;SDS011;58663;52.040;4.634;2022-09-03T04:10:51;3.60;;;2.45;;
70997;SDS011;58663;52.040;4.634;2022-09-03T04:13:17;5.35;;;2.58;;
70997;SDS011;58663;52.040;4.634;2022-09-03T04:15:42;5.05;;;2.50;;
70997;SDS011;58663;52.040;4.634;2022-09-03T04:18:08;4.75;;;2.25;;
70997;SDS011;58663;52.040;4.634;2022-09-03T04:20:37;3.65;;;2.40;;
70997;SDS011;58663;52.040;4.634;2022-09-03T04:23:03;3.97;;;2.00;;
70997;SDS011;58663;52.040;4.634;2022-09-03T04:25:28;5.70;;;2.10;;
70997;SDS011;58663;52.040;4.634;2022-09-03T04:27:54;3.65;;;3.15;;
70997;SDS011;58663;52.040;4.634;2022-09-03T04:30:19;3.75;;;2.38;;
70997;SDS011;58663;52.040;4.634;2022-09-03T04:32:48;2.60;;;2.40;;
70997;SDS011;58663;52.040;4.634;2022-09-03T04:35:24;4.30;;;2.30;;
70997;SDS011;58663;52.040;4.634;2022-09-03T04:37:50;3.95;;;2.38;;
70997;SDS011;58663;52.040;4.634;2022-09-03T04:40:19;5.28;;;2.13;;
70997;SDS011;58663;52.040;4.634;2022-09-03T04:42:44;2.75;;;2.00;;
70997;SDS011;58663;52.040;4.634;2022-09-03T04:45:10;4.10;;;2.35;;
70997;SDS011;58663;52.040;4.634;2022-09-03T04:47:36;6.50;;;2.55;;
70997;SDS011;58663;52.040;4.634;2022-09-03T04:50:03;3.85;;;2.38;;
70997;SDS011;58663;52.040;4.634;2022-09-03T04:52:29;5.70;;;2.42;;
70997;SDS011;58663;52.040;4.634;2022-09-03T04:54:55;2.80;;;2.25;;
70997;SDS011;58663;52.040;4.634;2022-09-03T04:57:21;2.58;;;2.03;;
70997;SDS011;58663;52.040;4.634;2022-09-03T04:59:47;2.58;;;1.90;;
70997;SDS011;58663;52.040;4.634;2022-09-03T05:02:13;3.58;;;2.20;;
70997;SDS011;58663;52.040;4.634;2022-09-03T05:04:39;3.45;;;2.40;;
70997;SDS011;58663;52.040;4.634;2022-09-03T05:07:05;3.53;;;2.17;;
70997;SDS011;58663;52.040;4.634;2022-09-03T05:09:31;4.25;;;2.40;;
70997;SDS011;58663;52.040;4.634;2022-09-03T05:11:56;3.00;;;2.20;;
70997;SDS011;58663;52.040;4.634;2022-09-03T05:14:22;3.45;;;2.25;;
70997;SDS011;58663;52.040;4.634;2022-09-03T05:16:48;4.80;;;2.38;;
70997;SDS011;58663;52.040;4.634;2022-09-03T05:19:14;3.95;;;2.28;;
70997;SDS011;58663;52.040;4.634;2022-09-03T05:21:40;3.25;;;2.25;;
70997;SDS011;58663;52.040;4.634;2022-09-03T05:24:07;4.28;;;2.50;;
70997;SDS011;58663;52.040;4.634;2022-09-03T05:26:35;3.67;;;2.20;;
70997;SDS011;58663;52.040;4.634;2022-09-03T05:29:02;3.20;;;2.03;;
70997;SDS011;58663;52.040;4.634;2022-09-03T05:31:32;2.63;;;2.25;;
70997;SDS011;58663;52.040;4.634;2022-09-03T05:33:59;5.38;;;2.30;;
70997;SDS011;58663;52.040;4.634;2022-09-03T05:36:27;2.75;;;2.22;;
70997;SDS011;58663;52.040;4.634;2022-09-03T05:38:54;3.30;;;2.45;;
70997;SDS011;58663;52.040;4.634;2022-09-03T05:41:21;5.90;;;2.28;;
70997;SDS011;58663;52.040;4.634;2022-09-03T05:43:47;3.63;;;1.90;;
70997;SDS011;58663;52.040;4.634;2022-09-03T05:46:19;2.70;;;1.95;;
70997;SDS011;58663;52.040;4.634;2022-09-03T05:48:45;2.67;;;2.20;;
70997;SDS011;58663;52.040;4.634;2022-09-03T05:51:11;2.35;;;1.83;;
70997;SDS011;58663;52.040;4.634;2022-09-03T05:53:40;2.35;;;2.13;;
70997;SDS011;58663;52.040;4.634;2022-09-03T05:56:08;3.53;;;1.80;;
70997;SDS011;58663;52.040;4.634;2022-09-03T05:58:38;4.50;;;2.10;;
70997;SDS011;58663;52.040;4.634;2022-09-03T06:01:11;4.15;;;2.30;;
70997;SDS011;58663;52.040;4.634;2022-09-03T06:03:39;2.38;;;2.05;;
70997;SDS011;58663;52.040;4.634;2022-09-03T06:06:05;5.22;;;2.10;;
70997;SDS011;58663;52.040;4.634;2022-09-03T06:08:31;2.92;;;2.30;;
70997;SDS011;58663;52.040;4.634;2022-09-03T06:10:57;5.05;;;2.55;;
70997;SDS011;58663;52.040;4.634;2022-09-03T06:13:28;4.63;;;2.40;;
70997;SDS011;58663;52.040;4.634;2022-09-03T06:16:00;3.83;;;2.63;;
70997;SDS011;58663;52.040;4.634;2022-09-03T06:18:28;2.92;;;2.10;;
70997;SDS011;58663;52.040;4.634;2022-09-03T06:21:01;6.25;;;2.28;;
70997;SDS011;58663;52.040;4.634;2022-09-03T06:23:28;4.35;;;2.75;;
70997;SDS011;58663;52.040;4.634;2022-09-03T06:28:26;3.78;;;2.15;;
70997;SDS011;58663;52.040;4.634;2022-09-03T06:30:52;3.90;;;2.20;;
70997;SDS011;58663;52.040;4.634;2022-09-03T06:33:18;3.15;;;2.30;;
70997;SDS011;58663;52.040;4.634;2022-09-03T06:35:43;4.35;;;2.10;;
70997;SDS011;58663;52.040;4.634;2022-09-03T06:38:10;4.07;;;2.25;;
70997;SDS011;58663;52.040;4.634;2022-09-03T06:40:37;2.42;;;2.03;;
70997;SDS011;58663;52.040;4.634;2022-09-03T06:43:02;3.13;;;2.17;;
70997;SDS011;58663;52.040;4.634;2022-09-03T06:45:31;2.20;;;1.95;;
70997;SDS011;58663;52.040;4.634;2022-09-03T06:47:56;3.20;;;2.10;;
70997;SDS011;58663;52.040;4.634;2022-09-03T06:50:22;3.60;;;2.30;;
70997;SDS011;58663;52.040;4.634;2022-09-03T06:52:51;3.78;;;2.13;;
70997;SDS011;58663;52.040;4.634;2022-09-03T06:55:19;3.25;;;2.33;;
70997;SDS011;58663;52.040;4.634;2022-09-03T06:57:45;3.92;;;2.35;;
70997;SDS011;58663;52.040;4.634;2022-09-03T07:00:11;4.03;;;2.28;;
70997;SDS011;58663;52.040;4.634;2022-09-03T07:02:38;4.82;;;2.60;;
70997;SDS011;58663;52.040;4.634;2022-09-03T07:05:06;5.13;;;2.58;;
70997;SDS011;58663;52.040;4.634;2022-09-03T07:07:32;4.32;;;2.42;;
70997;SDS011;58663;52.040;4.634;2022-09-03T07:09:57;5.88;;;2.47;;
70997;SDS011;58663;52.040;4.634;2022-09-03T07:12:23;6.03;;;2.60;;
70997;SDS011;58663;52.040;4.634;2022-09-03T07:14:48;2.85;;;2.47;;
70997;SDS011;58663;52.040;4.634;2022-09-03T07:17:14;3.40;;;2.83;;
70997;SDS011;58663;52.040;4.634;2022-09-03T07:19:40;3.80;;;2.35;;
70997;SDS011;58663;52.040;4.634;2022-09-03T07:22:05;5.82;;;2.53;;
70997;SDS011;58663;52.040;4.634;2022-09-03T07:24:33;4.78;;;2.60;;
70997;SDS011;58663;52.040;4.634;2022-09-03T07:26:59;3.47;;;2.25;;
70997;SDS011;58663;52.040;4.634;2022-09-03T07:29:26;3.55;;;2.38;;
70997;SDS011;58663;52.040;4.634;2022-09-03T07:31:52;4.68;;;2.45;;
70997;SDS011;58663;52.040;4.634;2022-09-03T07:34:17;3.30;;;2.72;;
70997;SDS011;58663;52.040;4.634;2022-09-03T07:36:46;3.00;;;2.30;;
70997;SDS011;58663;52.040;4.634;2022-09-03T07:39:15;5.03;;;2.20;;
70997;SDS011;58663;52.040;4.634;2022-09-03T07:41:41;9.45;;;2.90;;
70997;SDS011;58663;52.040;4.634;2022-09-03T07:44:10;5.80;;;2.53;;
70997;SDS011;58663;52.040;4.634;2022-09-03T07:46:37;3.30;;;2.40;;
70997;SDS011;58663;52.040;4.634;2022-09-03T07:49:04;3.08;;;2.45;;
70997;SDS011;58663;52.040;4.634;2022-09-03T07:51:31;2.58;;;2.22;;
70997;SDS011;58663;52.040;4.634;2022-09-03T07:54:00;8.05;;;2.30;;
70997;SDS011;58663;52.040;4.634;2022-09-03T07:56:28;3.58;;;2.13;;
70997;SDS011;58663;52.040;4.634;2022-09-03T07:58:59;5.90;;;2.22;;
70997;SDS011;58663;52.040;4.634;2022-09-03T08:01:25;7.28;;;2.00;;
70997;SDS011;58663;52.040;4.634;2022-09-03T08:03:53;3.20;;;2.30;;
70997;SDS011;58663;52.040;4.634;2022-09-03T08:06:19;5.55;;;2.22;;
70997;SDS011;58663;52.040;4.634;2022-09-03T08:08:46;3.45;;;2.30;;
70997;SDS011;58663;52.040;4.634;2022-09-03T08:11:16;6.18;;;2.70;;
70997;SDS011;58663;52.040;4.634;2022-09-03T08:13:52;3.80;;;2.20;;
70997;SDS011;58663;52.040;4.634;2022-09-03T08:16:26;3.63;;;2.40;;
70997;SDS011;58663;52.040;4.634;2022-09-03T08:18:55;4.20;;;2.28;;
70997;SDS011;58663;52.040;4.634;2022-09-03T08:21:21;2.67;;;2.38;;
70997;SDS011;58663;52.040;4.634;2022-09-03T08:23:47;5.85;;;2.30;;
70997;SDS011;58663;52.040;4.634;2022-09-03T08:26:15;5.85;;;2.33;;
70997;SDS011;58663;52.040;4.634;2022-09-03T08:28:41;4.75;;;2.20;;
70997;SDS011;58663;52.040;4.634;2022-09-03T08:31:11;3.47;;;2.20;;
70997;SDS011;58663;52.040;4.634;2022-09-03T08:33:42;4.90;;;2.30;;
70997;SDS011;58663;52.040;4.634;2022-09-03T08:36:10;2.83;;;2.08;;
70997;SDS011;58663;52.040;4.634;2022-09-03T08:38:37;3.72;;;2.25;;
70997;SDS011;58663;52.040;4.634;2022-09-03T08:41:04;2.80;;;2.30;;
70997;SDS011;58663;52.040;4.634;2022-09-03T08:43:31;4.10;;;2.45;;
70997;SDS011;58663;52.040;4.634;2022-09-03T08:48:27;4.75;;;2.05;;
70997;SDS011;58663;52.040;4.634;2022-09-03T08:50:52;4.35;;;2.60;;
70997;SDS011;58663;52.040;4.634;2022-09-03T08:56:39;3.22;;;2.28;;
70997;SDS011;58663;52.040;4.634;2022-09-03T08:58:59;3.63;;;2.13;;
70997;SDS011;58663;52.040;4.634;2022-09-03T09:06:45;6.82;;;2.22;;
70997;SDS011;58663;52.040;4.634;2022-09-03T09:14:38;3.45;;;1.90;;
70997;SDS011;58663;52.040;4.634;2022-09-03T09:22:49;7.68;;;2.50;;
70997;SDS011;58663;52.040;4.634;2022-09-03T09:25:20;6.10;;;2.58;;
70997;SDS011;58663;52.040;4.634;2022-09-03T09:27:50;4.32;;;2.25;;
70997;SDS011;58663;52.040;4.634;2022-09-03T09:30:20;4.72;;;2.85;;
70997;SDS011;58663;52.040;4.634;2022-09-03T09:32:45;5.40;;;2.13;;
70997;SDS011;58663;52.040;4.634;2022-09-03T09:35:14;5.03;;;2.20;;
70997;SDS011;58663;52.040;4.634;2022-09-03T09:37:51;5.05;;;1.83;;
70997;SDS011;58663;52.040;4.634;2022-09-03T09:40:26;3.28;;;1.90;;
70997;SDS011;58663;52.040;4.634;2022-09-03T09:45:46;6.25;;;2.13;;
70997;SDS011;58663;52.040;4.634;2022-09-03T09:50:47;4.03;;;1.90;;
70997;SDS011;58663;52.040;4.634;2022-09-03T09:53:13;2.70;;;1.77;;
70997;SDS011;58663;52.040;4.634;2022-09-03T09:55:55;6.20;;;1.90;;
70997;SDS011;58663;52.040;4.634;2022-09-03T09:58:26;5.53;;;2.45;;
70997;SDS011;58663;52.040;4.634;2022-09-03T10:00:55;5.72;;;2.42;;
70997;SDS011;58663;52.040;4.634;2022-09-03T10:03:21;3.80;;;2.42;;
70997;SDS011;58663;52.040;4.634;2022-09-03T10:05:56;3.67;;;2.20;;
70997;SDS011;58663;52.040;4.634;2022-09-03T10:08:26;5.05;;;2.00;;
70997;SDS011;58663;52.040;4.634;2022-09-03T10:10:51;2.90;;;2.13;;
70997;SDS011;58663;52.040;4.634;2022-09-03T10:13:18;3.15;;;2.30;;
70997;SDS011;58663;52.040;4.634;2022-09-03T10:15:50;4.40;;;2.00;;
70997;SDS011;58663;52.040;4.634;2022-09-03T10:21:01;3.92;;;1.95;;
70997;SDS011;58663;52.040;4.634;2022-09-03T10:23:36;3.08;;;2.42;;
70997;SDS011;58663;52.040;4.634;2022-09-03T10:26:20;15.63;;;2.30;;
70997;SDS011;58663;52.040;4.634;2022-09-03T10:28:55;7.00;;;2.20;;
70997;SDS011;58663;52.040;4.634;2022-09-03T10:40:21;5.53;;;2.28;;
70997;SDS011;58663;52.040;4.634;2022-09-03T10:48:38;3.78;;;2.22;;
70997;SDS011;58663;52.040;4.634;2022-09-03T11:02:07;4.13;;;2.28;;
70997;SDS011;58663;52.040;4.634;2022-09-03T11:07:44;3.53;;;2.13;;
70997;SDS011;58663;52.040;4.634;2022-09-03T11:10:20;4.90;;;1.83;;
70997;SDS011;58663;52.040;4.634;2022-09-03T11:12:57;5.72;;;2.13;;
70997;SDS011;58663;52.040;4.634;2022-09-03T11:20:54;2.83;;;1.92;;
70997;SDS011;58663;52.040;4.634;2022-09-03T11:23:23;5.57;;;2.20;;
70997;SDS011;58663;52.040;4.634;2022-09-03T11:25:53;3.55;;;2.00;;
70997;SDS011;58663;52.040;4.634;2022-09-03T11:33:53;2.17;;;1.63;;
70997;SDS011;58663;52.040;4.634;2022-09-03T11:36:31;7.45;;;1.70;;
70997;SDS011;58663;52.040;4.634;2022-09-03T11:39:11;3.92;;;1.70;;
70997;SDS011;58663;52.040;4.634;2022-09-03T11:41:43;3.72;;;2.00;;
70997;SDS011;58663;52.040;4.634;2022-09-03T11:44:23;3.72;;;1.85;;
70997;SDS011;58663;52.040;4.634;2022-09-03T11:46:53;3.72;;;1.85;;
70997;SDS011;58663;52.040;4.634;2022-09-03T11:49:30;7.25;;;2.30;;
70997;SDS011;58663;52.040;4.634;2022-09-03T11:51:58;5.15;;;1.80;;
70997;SDS011;58663;52.040;4.634;2022-09-03T11:54:30;2.40;;;1.67;;
70997;SDS011;58663;52.040;4.634;2022-09-03T11:57:08;2.55;;;1.88;;
70997;SDS011;58663;52.040;4.634;2022-09-03T11:59:47;5.97;;;1.80;;
70997;SDS011;58663;52.040;4.634;2022-09-03T12:02:28;3.08;;;1.90;;
70997;SDS011;58663;52.040;4.634;2022-09-03T12:05:14;3.05;;;1.67;;
70997;SDS011;58663;52.040;4.634;2022-09-03T12:15:36;3.03;;;2.17;;
70997;SDS011;58663;52.040;4.634;2022-09-03T12:18:25;3.55;;;1.85;;
70997;SDS011;58663;52.040;4.634;2022-09-03T12:21:00;3.97;;;1.92;;
70997;SDS011;58663;52.040;4.634;2022-09-03T12:25:58;4.95;;;2.08;;
70997;SDS011;58663;52.040;4.634;2022-09-03T12:28:29;2.53;;;2.20;;
70997;SDS011;58663;52.040;4.634;2022-09-03T12:31:04;4.70;;;1.95;;
70997;SDS011;58663;52.040;4.634;2022-09-03T12:33:46;12.82;;;2.90;;
70997;SDS011;58663;52.040;4.634;2022-09-03T12:36:12;6.97;;;2.85;;
70997;SDS011;58663;52.040;4.634;2022-09-03T12:38:38;4.28;;;2.28;;
70997;SDS011;58663;52.040;4.634;2022-09-03T12:41:04;4.20;;;2.33;;
70997;SDS011;58663;52.040;4.634;2022-09-03T12:43:29;4.75;;;2.42;;
70997;SDS011;58663;52.040;4.634;2022-09-03T12:45:55;5.13;;;2.10;;
70997;SDS011;58663;52.040;4.634;2022-09-03T12:48:21;4.63;;;2.38;;
70997;SDS011;58663;52.040;4.634;2022-09-03T12:50:47;2.63;;;2.05;;
70997;SDS011;58663;52.040;4.634;2022-09-03T12:53:19;7.05;;;2.38;;
70997;SDS011;58663;52.040;4.634;2022-09-03T12:55:48;4.97;;;2.50;;
70997;SDS011;58663;52.040;4.634;2022-09-03T12:58:19;3.88;;;2.60;;
70997;SDS011;58663;52.040;4.634;2022-09-03T13:00:56;6.57;;;2.72;;
70997;SDS011;58663;52.040;4.634;2022-09-03T13:06:09;5.22;;;2.42;;
70997;SDS011;58663;52.040;4.634;2022-09-03T13:08:48;2.53;;;2.00;;
70997;SDS011;58663;52.040;4.634;2022-09-03T13:11:15;4.55;;;2.72;;
70997;SDS011;58663;52.040;4.634;2022-09-03T13:13:51;5.35;;;2.42;;
70997;SDS011;58663;52.040;4.634;2022-09-03T13:22:03;3.08;;;2.20;;
70997;SDS011;58663;52.040;4.634;2022-09-03T13:25:07;4.55;;;2.50;;
70997;SDS011;58663;52.040;4.634;2022-09-03T13:30:35;4.15;;;1.88;;
70997;SDS011;58663;52.040;4.634;2022-09-03T13:33:10;4.07;;;2.60;;
70997;SDS011;58663;52.040;4.634;2022-09-03T13:36:08;4.35;;;2.17;;
70997;SDS011;58663;52.040;4.634;2022-09-03T13:38:52;3.40;;;2.42;;
70997;SDS011;58663;52.040;4.634;2022-09-03T13:44:19;5.15;;;2.22;;
70997;SDS011;58663;52.040;4.634;2022-09-03T13:46:56;5.38;;;2.58;;
70997;SDS011;58663;52.040;4.634;2022-09-03T13:52:37;3.10;;;2.20;;
70997;SDS011;58663;52.040;4.634;2022-09-03T13:55:15;4.38;;;2.15;;
70997;SDS011;58663;52.040;4.634;2022-09-03T14:01:03;5.03;;;2.45;;
70997;SDS011;58663;52.040;4.634;2022-09-03T14:03:49;10.40;;;2.10;;
70997;SDS011;58663;52.040;4.634;2022-09-03T14:09:10;3.28;;;1.98;;
70997;SDS011;58663;52.040;4.634;2022-09-03T14:17:25;2.38;;;1.67;;
70997;SDS011;58663;52.040;4.634;2022-09-03T14:19:59;3.10;;;2.22;;
70997;SDS011;58663;52.040;4.634;2022-09-03T14:25:08;5.32;;;2.35;;
70997;SDS011;58663;52.040;4.634;2022-09-03T14:27:35;4.18;;;2.00;;
70997;SDS011;58663;52.040;4.634;2022-09-03T14:30:03;2.42;;;1.92;;
70997;SDS011;58663;52.040;4.634;2022-09-03T14:50:55;3.15;;;2.10;;
70997;SDS011;58663;52.040;4.634;2022-09-03T14:56:58;3.13;;;1.67;;
70997;SDS011;58663;52.040;4.634;2022-09-03T14:59:51;3.03;;;1.55;;
70997;SDS011;58663;52.040;4.634;2022-09-03T15:08:04;2.17;;;1.58;;
70997;SDS011;58663;52.040;4.634;2022-09-03T15:10:51;3.78;;;1.80;;
70997;SDS011;58663;52.040;4.634;2022-09-03T15:13:20;2.10;;;1.50;;
70997;SDS011;58663;52.040;4.634;2022-09-03T15:21:25;1.50;;;1.40;;
70997;SDS011;58663;52.040;4.634;2022-09-03T15:24:12;2.38;;;1.75;;
70997;SDS011;58663;52.040;4.634;2022-09-03T15:32:17;3.43;;;1.30;;
70997;SDS011;58663;52.040;4.634;2022-09-03T15:37:59;1.85;;;1.70;;
70997;SDS011;58663;52.040;4.634;2022-09-03T15:42:57;2.83;;;2.05;;
70997;SDS011;58663;52.040;4.634;2022-09-03T15:48:20;2.10;;;1.60;;
70997;SDS011;58663;52.040;4.634;2022-09-03T15:53:54;3.90;;;1.83;;
70997;SDS011;58663;52.040;4.634;2022-09-03T15:59:00;2.17;;;1.50;;
70997;SDS011;58663;52.040;4.634;2022-09-03T16:01:33;3.17;;;1.73;;
70997;SDS011;58663;52.040;4.634;2022-09-03T16:12:33;2.35;;;2.00;;
70997;SDS011;58663;52.040;4.634;2022-09-03T16:15:21;3.42;;;1.70;;
70997;SDS011;58663;52.040;4.634;2022-09-03T16:20:31;4.45;;;1.75;;
70997;SDS011;58663;52.040;4.634;2022-09-03T16:23:04;3.00;;;2.13;;
70997;SDS011;58663;52.040;4.634;2022-09-03T16:25:49;3.05;;;1.85;;
70997;SDS011;58663;52.040;4.634;2022-09-03T16:28:27;4.22;;;2.08;;
70997;SDS011;58663;52.040;4.634;2022-09-03T16:33:36;2.90;;;1.83;;
70997;SDS011;58663;52.040;4.634;2022-09-03T16:36:06;3.75;;;2.00;;
70997;SDS011;58663;52.040;4.634;2022-09-03T16:44:23;4.82;;;1.90;;
70997;SDS011;58663;52.040;4.634;2022-09-03T17:00:08;6.18;;;2.63;;
70997;SDS011;58663;52.040;4.634;2022-09-03T17:02:46;2.08;;;1.80;;
70997;SDS011;58663;52.040;4.634;2022-09-03T17:26:53;5.72;;;2.22;;
70997;SDS011;58663;52.040;4.634;2022-09-03T17:29:43;3.20;;;2.30;;
70997;SDS011;58663;52.040;4.634;2022-09-03T17:43:37;5.57;;;2.20;;
70997;SDS011;58663;52.040;4.634;2022-09-03T17:46:19;3.60;;;2.42;;
70997;SDS011;58663;52.040;4.634;2022-09-03T17:48:55;2.92;;;1.90;;
70997;SDS011;58663;52.040;4.634;2022-09-03T17:51:33;3.20;;;2.17;;
70997;SDS011;58663;52.040;4.634;2022-09-03T17:56:55;6.53;;;2.30;;
70997;SDS011;58663;52.040;4.634;2022-09-03T18:05:26;4.68;;;2.58;;
70997;SDS011;58663;52.040;4.634;2022-09-03T18:11:35;4.00;;;2.15;;
70997;SDS011;58663;52.040;4.634;2022-09-03T18:18:50;2.83;;;2.17;;
70997;SDS011;58663;52.040;4.634;2022-09-03T18:21:23;8.05;;;2.20;;
70997;SDS011;58663;52.040;4.634;2022-09-03T18:24:30;3.08;;;2.25;;
70997;SDS011;58663;52.040;4.634;2022-09-03T18:27:40;3.97;;;2.70;;
70997;SDS011;58663;52.040;4.634;2022-09-03T18:30:30;6.13;;;3.10;;
70997;SDS011;58663;52.040;4.634;2022-09-03T18:33:16;3.97;;;2.92;;
70997;SDS011;58663;52.040;4.634;2022-09-03T18:36:04;3.80;;;3.17;;
70997;SDS011;58663;52.040;4.634;2022-09-03T18:38:49;7.97;;;3.28;;
70997;SDS011;58663;52.040;4.634;2022-09-03T18:48:12;6.60;;;3.70;;
70997;SDS011;58663;52.040;4.634;2022-09-03T18:51:11;7.13;;;3.40;;
70997;SDS011;58663;52.040;4.634;2022-09-03T18:54:31;5.95;;;3.10;;
70997;SDS011;58663;52.040;4.634;2022-09-03T18:57:20;5.93;;;3.10;;
70997;SDS011;58663;52.040;4.634;2022-09-03T19:00:08;7.90;;;3.15;;
70997;SDS011;58663;52.040;4.634;2022-09-03T19:03:00;6.35;;;3.00;;
70997;SDS011;58663;52.040;4.634;2022-09-03T19:15:23;5.85;;;2.40;;
70997;SDS011;58663;52.040;4.634;2022-09-03T19:18:16;6.72;;;2.97;;
70997;SDS011;58663;52.040;4.634;2022-09-03T19:24:13;6.55;;;2.63;;
70997;SDS011;58663;52.040;4.634;2022-09-03T19:27:00;3.13;;;2.38;;
70997;SDS011;58663;52.040;4.634;2022-09-03T19:30:12;3.67;;;2.45;;
70997;SDS011;58663;52.040;4.634;2022-09-03T19:35:50;4.53;;;2.70;;
70997;SDS011;58663;52.040;4.634;2022-09-03T19:45:34;6.28;;;2.63;;
70997;SDS011;58663;52.040;4.634;2022-09-03T19:48:28;5.57;;;2.55;;
70997;SDS011;58663;52.040;4.634;2022-09-03T19:51:39;5.30;;;3.92;;
70997;SDS011;58663;52.040;4.634;2022-09-03T19:54:43;5.28;;;3.08;;
70997;SDS011;58663;52.040;4.634;2022-09-03T19:57:28;3.33;;;2.83;;
70997;SDS011;58663;52.040;4.634;2022-09-03T20:00:13;4.00;;;2.90;;
70997;SDS011;58663;52.040;4.634;2022-09-03T20:02:57;4.15;;;3.20;;
70997;SDS011;58663;52.040;4.634;2022-09-03T20:05:42;4.47;;;3.10;;
70997;SDS011;58663;52.040;4.634;2022-09-03T20:08:26;4.47;;;3.40;;
70997;SDS011;58663;52.040;4.634;2022-09-03T20:11:18;5.75;;;2.83;;
70997;SDS011;58663;52.040;4.634;2022-09-03T20:13:44;4.95;;;3.40;;
70997;SDS011;58663;52.040;4.634;2022-09-03T20:19:07;6.18;;;3.20;;
70997;SDS011;58663;52.040;4.634;2022-09-03T20:24:52;9.70;;;4.82;;
70997;SDS011;58663;52.040;4.634;2022-09-03T20:27:36;6.50;;;4.20;;
70997;SDS011;58663;52.040;4.634;2022-09-03T20:30:19;7.82;;;4.18;;
70997;SDS011;58663;52.040;4.634;2022-09-03T20:33:05;6.75;;;4.20;;
70997;SDS011;58663;52.040;4.634;2022-09-03T20:49:18;6.50;;;5.00;;
70997;SDS011;58663;52.040;4.634;2022-09-03T20:51:59;5.70;;;4.65;;
70997;SDS011;58663;52.040;4.634;2022-09-03T21:20:50;9.35;;;5.45;;
70997;SDS011;58663;52.040;4.634;2022-09-03T21:23:25;5.45;;;4.55;;
70997;SDS011;58663;52.040;4.634;2022-09-03T21:28:53;6.70;;;4.18;;
70997;SDS011;58663;52.040;4.634;2022-09-03T21:31:51;6.35;;;3.90;;
70997;SDS011;58663;52.040;4.634;2022-09-03T21:34:28;5.07;;;4.30;;
70997;SDS011;58663;52.040;4.634;2022-09-03T21:36:55;4.20;;;3.80;;
70997;SDS011;58663;52.040;4.634;2022-09-03T21:39:26;8.48;;;4.05;;